Nearby METAR Reports

 

KIAG - Niagara Falls, New York, USA
Distance from station: W 12mi, 20km
Updated: 03/29/2017 2:53am
Clear
Clear
 Wind from calm
Wind: Calm
Temperature: 36°F , 2°C
Dew Point: 30°F , -1°C
Humidity: 81%
Barometer: 1022 hPa
Clouds: Clear
Visibility: 10 miles , 16 km
2017/03/29 06:53 KIAG 290653Z AUTO 00000KT 10SM CLR 02/M01 A3018 RMK AO2 SLP230 T00221011
KBUF - Buffalo/Cheektow, New York, USA
Distance from station: S 13mi, 21km
Updated: 03/29/2017 2:54am
Mostly cloudy
Mostly cloudy
 Wind from NNW
Wind: NNW 10 mph , 17 km/h
Temperature: 39°F , 4°C
Wind Chill: 32°F , 0°C
Dew Point: 34°F , 1°C
Humidity: 81%
Barometer: 1022 hPa
Clouds: Mostly cloudy
Visibility: 10 miles , 16 km
Cloud details: Mostly cloudy 3600 ft
2017/03/29 06:54 KBUF 290654Z 34009KT 10SM BKN036 04/01 A3018 RMK AO2 SLP225 T00440006
 
KROC - Rochester, New York, USA
Distance from station: E 51mi, 82km
Updated: 03/29/2017 2:54am
Partly cloudy
Partly cloudy
 Wind from WNW
Wind: WNW 3 mph , 6 km/h
Temperature: 36°F , 2°C
Dew Point: 34°F , 1°C
Humidity: 93%
Barometer: 1021.7 hPa
Clouds: Partly cloudy
Visibility: 10 miles , 16 km
Cloud details: Few Clouds 1400 ft
Partly cloudy 25000 ft
2017/03/29 06:54 KROC 290654Z 30003KT 10SM FEW014 SCT250 02/01 A3017 RMK AO2 SLP223 T00220011 $
CYSN - St. Catharines A, Ontario, Canada
Distance from station: WNW 25mi, 40km
Updated: 03/28/2017 9:00pm
NOT Current
Overcast
Overcast
 Wind from NNW
Wind: NNW 9 mph , 15 km/h
Temperature: 43°F , 6°C
Wind Chill: 38°F , 3°C
Dew Point: 37°F , 3°C
Humidity: 81%
Barometer: 1020 hPa
Clouds: Overcast
Visibility: 15 miles , 24 km
Cloud details: Overcast 2100 ft
2017/03/29 01:00 CYSN 290100Z 34008KT 15SM OVC021 06/03 A3012 RMK SC8 LAST STFD OBS / NEXT 291100UTC SLP202
 
KOLE - Olean, New York, USA
Distance from station: SSE 63mi, 102km
Updated: 03/21/2017 11:55am
NOT Current
Clear
Clear
 Wind from WNW
Wind: WNW 10 mph , 17 km/h, Gust: 21 mph , 33 km/h
Temperature: 41°F , 5°C
Wind Chill: 35°F , 2°C
Dew Point: 27°F , -3°C
Humidity: 57%
Barometer: 1013.9 hPa
Clouds: Clear
Visibility: 10 miles , 16 km
2017/03/21 15:55 KOLE 211555Z AUTO 29009G18KT 10SM CLR 05/M03 A2994 RMK AO2
KJHW - Jamestown, New York, USA
Distance from station: SSW 74mi, 119km
Updated: 03/29/2017 3:15am
Overcast
Overcast
 Wind from N
Wind: N 6 mph , 9 km/h
Temperature: 37°F , 3°C
Wind Chill: 32°F , 0°C
Dew Point: 34°F , 1°C
Humidity: 87%
Barometer: 1020.3 hPa
Clouds: Overcast
Visibility: 1 3/4 miles , 5 km
Cloud details: Overcast 200 ft
2017/03/29 07:15 KJHW 290715Z AUTO 35005KT 1 3/4SM OVC002 03/01 A3013 RMK AO1
 
CWWZ - Port Weller (mar, Ontario, Canada
Distance from station: WNW 28mi, 45km
Updated: 03/29/2017 3:00am

 Wind from N
Wind: N 1 mph , 2 km/h
Temperature: 37°F , 3°C
Dew Point: 32°F , 0°C
Humidity: 81%
2017/03/29 07:00 CWWZ 290700Z AUTO 36001KT 03/M00 RMK AO1 SLP231 T00251004 53011
CWPC - Port Colborne(Au, Ontario, Canada
Distance from station: WSW 33mi, 53km
Updated: 03/29/2017 3:00am

 Wind from N
Wind: N 8 mph , 13 km/h
Temperature: 39°F , 4°C
Wind Chill: 33°F , 1°C
Dew Point: 30°F , -1°C
Humidity: 70%
2017/03/29 07:00 CWPC 290700Z AUTO 01007KT 04/M01 RMK AO1 SLP225 T00371008 53009
 
CXVN - Vineland (au8), Ontario, Canada
Distance from station: W 36mi, 58km
Updated: 03/29/2017 3:00am

 Wind from W
Wind: W 5 mph , 7 km/h
Temperature: 36°F , 2°C
Wind Chill: 32°F , 0°C
Dew Point: 32°F , 0°C
Humidity: 87%
2017/03/29 07:00 CXVN 290700Z AUTO 28004KT 02/M00 RMK AO1 SOG 02 3009 SLP224 T00231002
CYTZ - Toronto Il Vor, Ontario, Canada
Distance from station: NW 50mi, 81km
Updated: 03/29/2017 3:00am
Clear
Clear
 Wind from NNW
Wind: NNW 9 mph , 15 km/h
Temperature: 41°F , 5°C
Wind Chill: 35°F , 2°C
Dew Point: 30°F , -1°C
Humidity: 66%
Barometer: 1022.7 hPa
Clouds: Clear
Visibility: 9 miles , 14 km
2017/03/29 07:00 CYTZ 290700Z AUTO 34008KT 9SM CLR 05/M01 A3020 RMK SLP232
 
CXTO - Toronto City, Ontario, Canada
Distance from station: NW 52mi, 84km
Updated: 03/29/2017 3:00am

 
Temperature: 39°F , 4°C
Dew Point: 30°F , -1°C
Humidity: 70%
2017/03/29 07:00 CXTO 290700Z AUTO 04/M01 RMK AO1 SLP228 T00421013 53012
KDKK - Dunkirk, New York, USA
Distance from station: SW 52mi, 84km
Updated: 03/29/2017 3:15am
Overcast
Overcast
 Wind from NW
Wind: NW 3 mph , 6 km/h
Temperature: 39°F , 4°C
Dew Point: 36°F , 2°C
Humidity: 87%
Barometer: 1022.4 hPa
Clouds: Overcast
Visibility: 10 miles , 16 km
Cloud details: Overcast 3000 ft
2017/03/29 07:15 KDKK 290715Z AUTO 31003KT 10SM OVC030 04/02 A3019 RMK AO2 T00390017
 
CYOO - Oshawa, Ontario, Canada
Distance from station: N 56mi, 90km
Updated: 03/29/2017 3:00am
Clear
Clear
 Wind from N
Wind: N 8 mph , 13 km/h
Temperature: 34°F , 1°C
Wind Chill: 27°F , -3°C
Dew Point: 30°F , -1°C
Humidity: 87%
Barometer: 1022.4 hPa
Clouds: Clear
Visibility: 9 miles , 14 km
2017/03/29 07:00 CYOO 290700Z AUTO 35007KT 9SM CLR 01/M01 A3019 RMK SLP230
CWWB - Burlington Piers, Ontario, Canada
Distance from station: WNW 56mi, 91km
Updated: 03/29/2017 3:00am

 Wind from NNW
Wind: NNW 15 mph , 24 km/h
Temperature: 41°F , 5°C
Wind Chill: 33°F , 1°C
Dew Point: 30°F , -1°C
Humidity: 66%
2017/03/29 07:00 CWWB 290700Z AUTO 34013KT 05/M01 RMK AO1 PK WND 34018/0630 SLP229 T00481014 53009
 
CYYZ - Toronto/Pearson, Ontario, Canada
Distance from station: NW 60mi, 96km
Updated: 03/29/2017 3:00am
Clear
Clear
 Wind from N
Wind: N 10 mph , 17 km/h
Temperature: 36°F , 2°C
Wind Chill: 29°F , -2°C
Dew Point: 30°F , -1°C
Humidity: 81%
Barometer: 1023 hPa
Clouds: Clear
Visibility: 15 miles , 24 km
2017/03/29 07:00 CYYZ 290700Z 36009KT 15SM SKC 02/M01 A3021 RMK SLP236
CYKZ - Toronto Buttonvi, Ontario, Canada
Distance from station: NW 62mi, 99km
Updated: 03/29/2017 3:00am
Clear
Clear
 Wind from N
Wind: N 7 mph , 11 km/h
Temperature: 36°F , 2°C
Wind Chill: 30°F , -1°C
Dew Point: 28°F , -2°C
Humidity: 75%
Barometer: 1022.7 hPa
Clouds: Clear
Visibility: 15 miles , 24 km
2017/03/29 07:00 CYKZ 290700Z 35006KT 15SM SKC 02/M02 A3020 RMK SLP234
 
CXHM - Hamilton Rbg Cs, Ontario, Canada
Distance from station: W 62mi, 100km
Updated: 03/29/2017 3:00am

 Wind from ESE
Wind: ESE 1 mph , 2 km/h
Temperature: 36°F , 2°C
Dew Point: 32°F , 0°C
Humidity: 87%
2017/03/29 07:00 CXHM 290700Z AUTO 11001KT 02/M00 RMK AO1 SLP224 T00181002 53008
KDSV - Dansville, New York, USA
Distance from station: SE 62mi, 100km
Updated: 03/29/2017 2:54am
Overcast
Overcast
 Wind from calm
Wind: Calm
Temperature: 41°F , 5°C
Dew Point: 37°F , 3°C
Humidity: 87%
Barometer: 1020.7 hPa
Clouds: Overcast
Visibility: 10 miles , 16 km
Cloud details: Overcast 1600 ft
2017/03/29 06:54 KDSV 290654Z AUTO 00000KT 10SM OVC016 05/03 A3014 RMK AO2 SLP220 T00500028
 
CYHM - Hamilton Airport, Ontario, Canada
Distance from station: W 63mi, 101km
Updated: 03/29/2017 3:00am
Few Clouds
Few Clouds
 Wind from N
Wind: N 8 mph , 13 km/h
Temperature: 36°F , 2°C
Wind Chill: 30°F , -1°C
Dew Point: 28°F , -2°C
Humidity: 75%
Barometer: 1022.4 hPa
Clouds: Few Clouds
Visibility: 15 miles , 24 km
Cloud details: Few Clouds 2600 ft
2017/03/29 07:00 CYHM 290700Z 36007KT 15SM FEW026 02/M02 A3019 RMK SC1 SC TR SLP231
CWNC - Cobourg (mars), Ontario, Canada
Distance from station: NNE 63mi, 102km
Updated: 03/29/2017 3:00am

 Wind from N
Wind: N 6 mph , 9 km/h
Temperature: 36°F , 2°C
Wind Chill: 31°F , -1°C
Dew Point: 28°F , -2°C
Humidity: 75%
2017/03/29 07:00 CWNC 290700Z AUTO 36005KT 02/M02 RMK AO1 SOG 00 3010 SLP219 T00181017